Time;durP1;ratioP1;P1;durP2;ratioP2;P2;SDS_P1;SDS_P2;PMS_P1;PMS_P2;Temp;Humidity;BMP_temperature;BMP_pressure;BME280_temperature;BME280_humidity;BME280_pressure;Samples;Min_cycle;Max_cycle;Signal;HPM_P1;HPM_P2
2021/12/08 00:02:14;;;;;;;7.10;3.03;;;;;;;;;;5053614;28;20049;-68
2021/12/08 00:04:41;;;;;;;9.57;4.00;;;;;;;;;;5053864;28;20049;-68
2021/12/08 00:07:07;;;;;;;10.82;3.80;;;;;;;;;;5052919;28;20033;-68
2021/12/08 00:14:55;;;;;;;8.70;3.60;;;;;;;;;;5052796;28;20442;-68
2021/12/08 00:17:21;;;;;;;6.95;3.45;;;;;;;;;;5052399;28;20041;-68
2021/12/08 00:19:47;;;;;;;7.68;3.72;;;;;;;;;;5035121;28;20349;-68
2021/12/08 00:22:13;;;;;;;10.20;3.53;;;;;;;;;;5052316;28;20045;-68
2021/12/08 00:24:39;;;;;;;11.15;3.30;;;;;;;;;;5035675;28;20658;-68
2021/12/08 00:27:06;;;;;;;11.00;4.00;;;;;;;;;;5052990;28;20048;-68
2021/12/08 00:29:32;;;;;;;9.07;3.25;;;;;;;;;;5034438;28;20065;-68
2021/12/08 00:31:58;;;;;;;7.45;3.83;;;;;;;;;;5034581;28;20049;-68
2021/12/08 00:34:24;;;;;;;8.82;3.75;;;;;;;;;;5053046;28;20037;-68
2021/12/08 00:36:57;;;;;;;9.35;3.40;;;;;;;;;;5034673;28;20056;-68
2021/12/08 00:39:23;;;;;;;9.25;3.58;;;;;;;;;;5023026;28;20049;-68
2021/12/08 00:41:50;;;;;;;11.40;3.65;;;;;;;;;;5032737;28;20052;-68
2021/12/08 00:44:16;;;;;;;9.98;3.22;;;;;;;;;;5051361;28;20089;-68
2021/12/08 00:46:42;;;;;;;6.72;3.72;;;;;;;;;;5034955;28;20044;-68
2021/12/08 00:49:11;;;;;;;9.77;3.13;;;;;;;;;;5034823;28;20046;-68
2021/12/08 00:51:37;;;;;;;11.60;3.78;;;;;;;;;;5033885;28;20090;-68
2021/12/08 00:54:04;;;;;;;7.00;3.58;;;;;;;;;;5052664;28;20041;-68
2021/12/08 00:56:30;;;;;;;8.50;3.38;;;;;;;;;;5034650;28;20049;-68
2021/12/08 00:58:57;;;;;;;7.72;3.17;;;;;;;;;;5051880;28;20167;-68
2021/12/08 01:01:23;;;;;;;10.02;3.53;;;;;;;;;;5052404;28;20049;-68
2021/12/08 01:03:50;;;;;;;9.75;3.53;;;;;;;;;;5052195;28;20053;-68
2021/12/08 01:06:17;;;;;;;7.28;3.28;;;;;;;;;;5033877;28;20507;-68
2021/12/08 01:08:43;;;;;;;12.90;3.45;;;;;;;;;;5052468;28;20106;-68
2021/12/08 01:11:19;;;;;;;11.43;3.97;;;;;;;;;;5034013;28;20052;-68
2021/12/08 01:13:46;;;;;;;11.18;3.53;;;;;;;;;;5033441;28;20128;-68
2021/12/08 01:16:13;;;;;;;7.65;3.40;;;;;;;;;;5052234;28;20498;-68
2021/12/08 01:18:39;;;;;;;6.32;3.65;;;;;;;;;;5033998;28;20123;-68
2021/12/08 01:21:07;;;;;;;8.57;3.15;;;;;;;;;;5033364;28;20044;-68
2021/12/08 01:23:33;;;;;;;10.90;4.00;;;;;;;;;;5033949;28;20061;-68
2021/12/08 01:25:59;;;;;;;10.85;4.20;;;;;;;;;;5034030;28;20053;-68
2021/12/08 01:28:25;;;;;;;8.52;3.67;;;;;;;;;;5033266;28;20040;-69
2021/12/08 01:30:53;;;;;;;7.57;3.42;;;;;;;;;;5051822;28;20045;-68
2021/12/08 01:33:20;;;;;;;7.38;3.58;;;;;;;;;;5051690;28;20041;-68
2021/12/08 01:35:46;;;;;;;6.55;3.28;;;;;;;;;;5016552;28;20084;-68
2021/12/08 01:38:12;;;;;;;8.00;3.25;;;;;;;;;;5051883;28;20041;-68
2021/12/08 01:40:38;;;;;;;5.97;3.53;;;;;;;;;;5051792;28;20487;-68
2021/12/08 01:43:04;;;;;;;5.20;3.08;;;;;;;;;;5050971;28;20372;-68
2021/12/08 01:48:18;;;;;;;8.43;3.35;;;;;;;;;;5033649;28;20055;-69
2021/12/08 01:50:46;;;;;;;10.30;3.63;;;;;;;;;;5051094;28;20044;-68
2021/12/08 01:53:12;;;;;;;7.63;3.70;;;;;;;;;;5033409;28;20057;-68
2021/12/08 01:55:40;;;;;;;7.80;3.40;;;;;;;;;;5051467;28;20091;-68
2021/12/08 01:58:07;;;;;;;7.80;3.30;;;;;;;;;;5050860;28;20120;-68
2021/12/08 02:00:46;;;;;;;7.97;3.20;;;;;;;;;;5033554;28;20626;-68
2021/12/08 02:03:12;;;;;;;10.13;3.55;;;;;;;;;;5033297;28;20049;-68
2021/12/08 02:05:38;;;;;;;6.38;2.97;;;;;;;;;;5051132;28;20408;-69
2021/12/08 02:08:05;;;;;;;7.18;3.30;;;;;;;;;;5051440;28;20629;-68
2021/12/08 02:10:31;;;;;;;8.90;3.28;;;;;;;;;;5033491;28;20094;-68
2021/12/08 02:12:58;;;;;;;5.10;3.28;;;;;;;;;;5032559;28;20137;-68
2021/12/08 02:15:24;;;;;;;7.53;3.38;;;;;;;;;;5051481;28;20098;-68
2021/12/08 02:17:53;;;;;;;5.97;3.67;;;;;;;;;;5033665;28;20055;-68
2021/12/08 02:20:20;;;;;;;7.05;3.30;;;;;;;;;;5032843;28;20079;-68
2021/12/08 02:22:46;;;;;;;7.78;3.80;;;;;;;;;;5050859;28;20061;-68
2021/12/08 02:25:14;;;;;;;9.15;3.38;;;;;;;;;;5051470;28;20121;-68
2021/12/08 02:27:40;;;;;;;8.20;3.67;;;;;;;;;;5050322;28;20090;-68
2021/12/08 02:30:20;;;;;;;5.95;3.53;;;;;;;;;;5033216;28;20041;-68
2021/12/08 02:49:11;;;;;;;7.43;3.38;;;;;;;;;;5036440;28;20108;-68
2021/12/08 02:51:37;;;;;;;7.10;3.70;;;;;;;;;;5036960;28;20048;-68
2021/12/08 02:54:04;;;;;;;8.27;3.30;;;;;;;;;;5055219;28;20037;-69
2021/12/08 02:56:30;;;;;;;10.55;3.83;;;;;;;;;;5036121;28;20048;-68
2021/12/08 02:58:58;;;;;;;5.88;3.28;;;;;;;;;;5054567;28;20554;-68
2021/12/08 03:01:24;;;;;;;7.22;3.70;;;;;;;;;;5054864;28;20052;-68
2021/12/08 03:03:50;;;;;;;8.50;4.53;;;;;;;;;;5036176;28;20044;-68
2021/12/08 03:06:17;;;;;;;11.02;4.63;;;;;;;;;;5036645;28;20083;-68
2021/12/08 03:08:43;;;;;;;6.93;4.07;;;;;;;;;;5036769;28;20051;-68
2021/12/08 03:11:10;;;;;;;6.72;4.50;;;;;;;;;;5053760;28;20053;-68
2021/12/08 03:13:41;;;;;;;9.07;4.85;;;;;;;;;;5036346;28;20071;-68
2021/12/08 03:16:09;;;;;;;9.02;4.68;;;;;;;;;;5036395;28;20099;-68
2021/12/08 03:18:37;;;;;;;8.48;4.60;;;;;;;;;;5053869;28;20037;-68
2021/12/08 03:21:05;;;;;;;9.00;4.70;;;;;;;;;;5036550;28;20087;-69
2021/12/08 03:23:47;;;;;;;7.10;4.72;;;;;;;;;;5036177;28;20085;-68
2021/12/08 03:26:14;;;;;;;9.45;4.95;;;;;;;;;;5035900;28;20053;-68
2021/12/08 03:28:48;;;;;;;6.82;4.25;;;;;;;;;;5019092;28;20061;-68
2021/12/08 03:31:19;;;;;;;8.10;4.45;;;;;;;;;;5039653;28;20436;-68
2021/12/08 03:33:46;;;;;;;8.60;5.18;;;;;;;;;;5053700;28;20067;-68
2021/12/08 03:36:12;;;;;;;8.45;5.15;;;;;;;;;;5054176;28;20029;-68
2021/12/08 03:38:45;;;;;;;8.88;5.18;;;;;;;;;;5054302;28;20041;-68
2021/12/08 03:41:11;;;;;;;8.10;5.60;;;;;;;;;;5035343;28;20128;-68
2021/12/08 03:43:38;;;;;;;10.63;6.15;;;;;;;;;;5054053;28;20049;-68
2021/12/08 03:46:04;;;;;;;11.07;5.82;;;;;;;;;;5054272;28;20106;-68
2021/12/08 03:48:45;;;;;;;9.15;6.47;;;;;;;;;;5053376;28;20049;-68
2021/12/08 03:51:11;;;;;;;13.60;7.18;;;;;;;;;;5053830;28;20368;-68
2021/12/08 03:53:37;;;;;;;8.48;6.57;;;;;;;;;;5053518;28;20094;-68
2021/12/08 03:56:04;;;;;;;9.57;6.90;;;;;;;;;;5052979;28;20106;-68
2021/12/08 03:58:30;;;;;;;10.38;6.85;;;;;;;;;;5035391;28;20559;-68
2021/12/08 04:00:58;;;;;;;10.50;7.60;;;;;;;;;;5053555;28;20037;-68
2021/12/08 04:03:26;;;;;;;11.50;7.75;;;;;;;;;;5052800;28;20041;-68
2021/12/08 04:05:58;;;;;;;13.65;7.97;;;;;;;;;;5035842;28;20492;-68
2021/12/08 04:08:54;;;;;;;11.90;8.00;;;;;;;;;;5035743;28;20643;-68
2021/12/08 04:11:16;;;;;;;13.07;8.52;;;;;;;;;;5052309;28;20122;-68
2021/12/08 04:13:48;;;;;;;13.13;8.13;;;;;;;;;;5053554;28;20048;-68
2021/12/08 04:16:16;;;;;;;13.98;7.22;;;;;;;;;;5053458;28;20064;-68
2021/12/08 04:18:43;;;;;;;12.63;7.88;;;;;;;;;;5052923;28;20052;-69
2021/12/08 04:21:10;;;;;;;12.55;7.85;;;;;;;;;;5052813;28;20033;-68
2021/12/08 04:23:38;;;;;;;10.70;7.20;;;;;;;;;;5034881;28;20063;-68
2021/12/08 04:26:08;;;;;;;11.82;8.15;;;;;;;;;;5052751;28;20458;-68
2021/12/08 04:28:34;;;;;;;10.95;8.15;;;;;;;;;;5020359;28;20044;-68
2021/12/08 04:31:06;;;;;;;8.35;7.13;;;;;;;;;;5016777;28;20141;-68
2021/12/08 04:33:34;;;;;;;8.13;7.18;;;;;;;;;;5034333;28;20132;-68
2021/12/08 04:36:02;;;;;;;13.02;7.72;;;;;;;;;;5025237;28;20046;-68
2021/12/08 04:38:33;;;;;;;9.40;7.78;;;;;;;;;;5033082;28;20045;-68
2021/12/08 04:43:35;;;;;;;10.60;7.15;;;;;;;;;;5035080;28;20049;-68
2021/12/08 04:49:11;;;;;;;12.23;7.60;;;;;;;;;;5052490;28;20080;-68
2021/12/08 05:10:16;;;;;;;12.52;6.80;;;;;;;;;;5050696;28;20052;-68
2021/12/08 05:12:43;;;;;;;13.48;6.80;;;;;;;;;;5033995;28;20048;-68
2021/12/08 05:15:18;;;;;;;12.75;7.30;;;;;;;;;;5052348;28;20032;-68
2021/12/08 05:17:53;;;;;;;9.65;6.72;;;;;;;;;;5051795;28;20122;-68
2021/12/08 05:20:26;;;;;;;11.32;7.10;;;;;;;;;;5052299;28;20065;-68
2021/12/08 05:22:54;;;;;;;9.63;6.55;;;;;;;;;;5051889;28;20489;-68
2021/12/08 05:25:29;;;;;;;17.23;8.00;;;;;;;;;;5051515;28;20132;-68
2021/12/08 05:27:57;;;;;;;11.70;7.30;;;;;;;;;;5051901;28;20048;-68
2021/12/08 05:30:32;;;;;;;13.73;6.80;;;;;;;;;;5034191;28;20566;-68
2021/12/08 05:32:59;;;;;;;13.13;6.97;;;;;;;;;;5033037;28;20041;-68
2021/12/08 05:35:26;;;;;;;11.27;7.10;;;;;;;;;;5033874;28;20045;-68
2021/12/08 05:37:53;;;;;;;9.40;6.80;;;;;;;;;;5033998;28;20071;-69
2021/12/08 05:40:22;;;;;;;11.52;7.07;;;;;;;;;;5033150;28;20399;-68
2021/12/08 05:42:48;;;;;;;11.70;6.55;;;;;;;;;;5051745;28;20045;-68
2021/12/08 05:45:15;;;;;;;11.82;6.25;;;;;;;;;;5051598;28;20365;-68
2021/12/08 05:47:42;;;;;;;11.68;6.35;;;;;;;;;;5050897;28;20090;-68
2021/12/08 05:50:10;;;;;;;12.23;6.47;;;;;;;;;;5052021;28;20046;-69
2021/12/08 05:52:36;;;;;;;10.98;6.53;;;;;;;;;;5051110;28;20045;-68
2021/12/08 05:55:04;;;;;;;9.77;6.45;;;;;;;;;;5051145;28;20044;-68
2021/12/08 05:57:32;;;;;;;12.43;6.35;;;;;;;;;;5050768;28;20044;-68
2021/12/08 05:59:59;;;;;;;11.05;6.22;;;;;;;;;;5033512;28;20041;-69
2021/12/08 06:02:30;;;;;;;10.05;5.95;;;;;;;;;;5032649;28;20067;-68
2021/12/08 06:04:57;;;;;;;11.43;6.45;;;;;;;;;;5033421;28;20167;-69
2021/12/08 06:07:23;;;;;;;9.85;6.00;;;;;;;;;;5051554;28;20044;-68
2021/12/08 06:09:53;;;;;;;10.65;6.40;;;;;;;;;;5050581;28;20095;-68
2021/12/08 06:12:20;;;;;;;7.15;5.05;;;;;;;;;;5033020;28;20099;-68
2021/12/08 06:14:46;;;;;;;9.43;5.93;;;;;;;;;;5051568;28;20040;-69
2021/12/08 06:17:17;;;;;;;9.57;5.90;;;;;;;;;;5050441;28;20069;-69
2021/12/08 06:19:44;;;;;;;11.98;6.20;;;;;;;;;;5051133;28;20048;-68
2021/12/08 06:22:11;;;;;;;11.32;5.88;;;;;;;;;;5051080;28;20041;-68
2021/12/08 06:24:37;;;;;;;12.57;5.25;;;;;;;;;;5004551;28;20484;-68
2021/12/08 06:27:04;;;;;;;8.85;5.00;;;;;;;;;;5013759;28;20080;-68
2021/12/08 06:29:30;;;;;;;9.90;4.95;;;;;;;;;;5031032;28;20053;-69
2021/12/08 06:31:58;;;;;;;9.48;4.95;;;;;;;;;;5012278;28;20045;-69
2021/12/08 06:34:24;;;;;;;8.50;4.93;;;;;;;;;;5013306;28;20113;-69
2021/12/08 06:37:12;;;;;;;9.43;5.38;;;;;;;;;;5031001;28;20038;-68
2021/12/08 06:39:43;;;;;;;8.05;4.70;;;;;;;;;;5012720;28;20060;-68
2021/12/08 06:42:12;;;;;;;10.15;5.30;;;;;;;;;;5031322;28;20045;-68
2021/12/08 06:44:40;;;;;;;8.60;4.97;;;;;;;;;;5031303;28;20456;-68
2021/12/08 06:47:07;;;;;;;9.98;4.72;;;;;;;;;;5012959;28;20045;-68
2021/12/08 06:49:34;;;;;;;12.82;4.63;;;;;;;;;;5013458;28;20083;-68
2021/12/08 06:52:11;;;;;;;8.82;4.50;;;;;;;;;;5030699;28;20041;-68
2021/12/08 06:54:57;;;;;;;8.52;4.30;;;;;;;;;;5029777;28;20041;-68
2021/12/08 06:57:49;;;;;;;8.82;4.53;;;;;;;;;;5016542;28;20056;-66
2021/12/08 07:00:23;;;;;;;9.55;3.97;;;;;;;;;;5003164;28;20049;-67
2021/12/08 07:02:59;;;;;;;11.55;4.43;;;;;;;;;;5018262;28;20501;-68
2021/12/08 07:05:52;;;;;;;5.35;3.70;;;;;;;;;;5008095;28;20125;-69
2021/12/08 07:08:14;;;;;;;13.60;3.90;;;;;;;;;;5005130;28;20476;-69
2021/12/08 07:10:44;;;;;;;11.00;3.88;;;;;;;;;;5012270;28;20042;-68
2021/12/08 07:13:13;;;;;;;7.35;3.10;;;;;;;;;;5029801;28;20046;-69
2021/12/08 07:15:46;;;;;;;7.30;3.50;;;;;;;;;;5029930;28;20519;-68
2021/12/08 07:18:16;;;;;;;7.20;3.35;;;;;;;;;;5012292;28;20111;-69
2021/12/08 07:20:47;;;;;;;6.53;3.50;;;;;;;;;;5029674;28;20048;-68
2021/12/08 07:23:15;;;;;;;8.93;3.33;;;;;;;;;;5027904;28;20127;-68
2021/12/08 07:25:42;;;;;;;8.93;3.85;;;;;;;;;;5050369;28;20063;-68
2021/12/08 07:28:08;;;;;;;7.75;3.30;;;;;;;;;;5031605;28;20044;-67
2021/12/08 07:30:42;;;;;;;9.52;3.40;;;;;;;;;;5049208;28;20052;-67
2021/12/08 07:33:08;;;;;;;5.53;3.13;;;;;;;;;;5054397;28;20479;-66
2021/12/08 07:35:36;;;;;;;6.13;2.75;;;;;;;;;;5056008;28;20123;-67
2021/12/08 07:38:04;;;;;;;7.20;3.13;;;;;;;;;;5050343;28;20124;-68
2021/12/08 07:40:40;;;;;;;6.20;2.75;;;;;;;;;;5026732;28;20038;-67
2021/12/08 07:43:08;;;;;;;8.57;3.53;;;;;;;;;;5051251;28;20495;-68
2021/12/08 07:45:37;;;;;;;9.23;3.28;;;;;;;;;;5046010;28;20044;-65
2021/12/08 07:48:05;;;;;;;6.78;3.10;;;;;;;;;;5050090;28;20613;-66
2021/12/08 07:50:37;;;;;;;6.22;3.05;;;;;;;;;;5052123;28;20041;-67
2021/12/08 07:53:04;;;;;;;6.03;2.97;;;;;;;;;;5042505;28;20866;-66
2021/12/08 07:55:32;;;;;;;13.00;2.70;;;;;;;;;;5051583;28;20480;-66
2021/12/08 07:57:58;;;;;;;7.88;2.80;;;;;;;;;;5051708;28;20036;-67
2021/12/08 08:00:31;;;;;;;9.25;3.15;;;;;;;;;;5032995;28;20041;-67
2021/12/08 08:02:58;;;;;;;10.35;2.80;;;;;;;;;;5021228;28;20080;-67
2021/12/08 08:05:28;;;;;;;4.97;2.70;;;;;;;;;;5051773;28;20055;-67
2021/12/08 08:07:56;;;;;;;8.40;2.80;;;;;;;;;;5049933;28;20155;-67
2021/12/08 08:10:23;;;;;;;9.85;3.05;;;;;;;;;;5051964;28;20391;-67
2021/12/08 08:12:50;;;;;;;10.48;2.70;;;;;;;;;;5051784;28;20119;-67
2021/12/08 08:15:20;;;;;;;11.32;2.90;;;;;;;;;;5051134;28;20120;-67
2021/12/08 08:17:47;;;;;;;5.78;2.13;;;;;;;;;;5033461;28;20039;-67
2021/12/08 08:20:23;;;;;;;7.95;2.95;;;;;;;;;;5051351;28;20124;-67
2021/12/08 08:22:49;;;;;;;6.20;2.45;;;;;;;;;;5050789;28;20053;-67
2021/12/08 08:25:18;;;;;;;9.73;2.40;;;;;;;;;;5051647;28;20049;-67
2021/12/08 08:27:44;;;;;;;6.95;2.60;;;;;;;;;;5032933;28;20047;-67
2021/12/08 08:30:13;;;;;;;8.30;2.50;;;;;;;;;;5051150;28;20041;-67
2021/12/08 08:32:40;;;;;;;6.30;2.10;;;;;;;;;;5051121;28;20055;-67
2021/12/08 08:35:12;;;;;;;5.47;2.65;;;;;;;;;;5051853;28;20033;-67
2021/12/08 08:37:38;;;;;;;5.82;2.30;;;;;;;;;;5049561;28;20045;-67
2021/12/08 08:40:07;;;;;;;7.90;2.35;;;;;;;;;;5033823;28;20475;-67
2021/12/08 08:42:36;;;;;;;7.93;2.65;;;;;;;;;;5032303;28;20045;-67
2021/12/08 08:45:20;;;;;;;10.25;2.33;;;;;;;;;;5051250;28;20045;-67
2021/12/08 08:47:49;;;;;;;10.70;2.28;;;;;;;;;;5025248;28;20057;-67
2021/12/08 08:50:19;;;;;;;6.32;1.80;;;;;;;;;;5032171;28;20143;-67
2021/12/08 08:52:47;;;;;;;13.38;3.15;;;;;;;;;;5046877;28;20502;-67
2021/12/08 08:55:15;;;;;;;6.75;2.10;;;;;;;;;;5050780;28;20045;-67
2021/12/08 08:57:42;;;;;;;8.48;2.13;;;;;;;;;;5032475;28;20467;-68
2021/12/08 09:00:12;;;;;;;7.15;2.65;;;;;;;;;;5049964;28;20622;-67
2021/12/08 09:02:39;;;;;;;6.35;2.38;;;;;;;;;;5049246;28;20037;-67
2021/12/08 09:05:08;;;;;;;5.75;2.00;;;;;;;;;;5050624;28;20426;-68
2021/12/08 09:07:39;;;;;;;8.20;2.17;;;;;;;;;;5032151;28;20049;-68
2021/12/08 09:10:08;;;;;;;7.97;2.15;;;;;;;;;;5050260;28;20449;-68
2021/12/08 09:12:36;;;;;;;6.15;2.08;;;;;;;;;;5024269;28;20718;-67
2021/12/08 09:15:02;;;;;;;8.93;2.30;;;;;;;;;;5039354;28;20064;-67
2021/12/08 09:17:31;;;;;;;8.82;2.13;;;;;;;;;;5031920;28;20540;-67
2021/12/08 09:20:04;;;;;;;10.30;2.55;;;;;;;;;;5047396;28;20052;-68
2021/12/08 09:22:55;;;;;;;10.90;2.83;;;;;;;;;;5029644;28;20379;-68
2021/12/08 09:25:30;;;;;;;7.93;3.50;;;;;;;;;;5022977;28;20396;-68
2021/12/08 09:27:59;;;;;;;8.27;2.10;;;;;;;;;;5049587;28;20380;-68
2021/12/08 09:30:32;;;;;;;13.88;2.53;;;;;;;;;;5030579;28;20084;-68
2021/12/08 09:33:01;;;;;;;11.20;2.35;;;;;;;;;;5031959;28;20555;-68
2021/12/08 09:35:54;;;;;;;9.80;2.42;;;;;;;;;;5031285;28;20073;-68
2021/12/08 09:38:29;;;;;;;9.77;2.22;;;;;;;;;;5028962;28;20045;-67
2021/12/08 09:41:01;;;;;;;11.90;2.35;;;;;;;;;;5048516;28;20047;-67
2021/12/08 09:43:30;;;;;;;9.63;2.28;;;;;;;;;;5026702;28;20045;-67
2021/12/08 09:45:59;;;;;;;11.48;2.83;;;;;;;;;;5030696;28;20044;-67
2021/12/08 09:48:29;;;;;;;5.78;3.17;;;;;;;;;;5049688;28;20051;-67
2021/12/08 09:50:56;;;;;;;11.45;3.10;;;;;;;;;;5047439;28;20463;-66
2021/12/08 09:53:22;;;;;;;12.23;3.28;;;;;;;;;;5048678;28;20043;-67
2021/12/08 09:55:49;;;;;;;7.85;2.42;;;;;;;;;;5026160;28;20480;-68
2021/12/08 09:58:15;;;;;;;9.80;2.88;;;;;;;;;;5023684;28;20049;-68
2021/12/08 10:00:42;;;;;;;11.93;2.75;;;;;;;;;;5020005;28;20483;-67
2021/12/08 10:03:08;;;;;;;15.73;2.75;;;;;;;;;;5038133;28;20049;-65
2021/12/08 10:05:36;;;;;;;10.27;3.10;;;;;;;;;;5045777;28;20033;-65
2021/12/08 10:08:04;;;;;;;13.27;2.33;;;;;;;;;;5048323;28;20044;-66
2021/12/08 10:10:31;;;;;;;16.90;2.72;;;;;;;;;;5050246;28;20045;-66
2021/12/08 10:12:58;;;;;;;8.90;2.60;;;;;;;;;;5048067;28;20052;-66
2021/12/08 10:15:24;;;;;;;7.57;2.38;;;;;;;;;;5050026;28;20124;-66
2021/12/08 10:17:51;;;;;;;9.93;2.65;;;;;;;;;;5048462;28;20143;-66
2021/12/08 10:20:17;;;;;;;11.40;2.70;;;;;;;;;;5047642;28;20080;-66
2021/12/08 10:22:45;;;;;;;11.40;2.80;;;;;;;;;;5045376;28;20068;-66
2021/12/08 10:25:19;;;;;;;11.00;2.70;;;;;;;;;;5049092;28;20048;-66
2021/12/08 10:28:15;;;;;;;12.93;2.75;;;;;;;;;;5048490;28;20041;-66
2021/12/08 10:30:46;;;;;;;10.23;2.20;;;;;;;;;;5046829;28;20634;-66
2021/12/08 10:33:36;;;;;;;8.80;2.63;;;;;;;;;;5038405;28;20053;-66
2021/12/08 10:36:15;;;;;;;8.50;2.75;;;;;;;;;;5047624;28;20045;-65
2021/12/08 10:38:41;;;;;;;16.77;3.15;;;;;;;;;;5048486;28;20136;-65
2021/12/08 10:41:07;;;;;;;9.73;2.72;;;;;;;;;;5049328;28;20127;-65
2021/12/08 10:43:34;;;;;;;7.43;2.55;;;;;;;;;;5048165;28;20045;-66
2021/12/08 10:46:02;;;;;;;10.13;2.67;;;;;;;;;;5047377;28;20774;-66
2021/12/08 10:48:34;;;;;;;8.85;2.72;;;;;;;;;;5044385;28;20041;-64
2021/12/08 10:56:41;;;;;;;12.55;2.65;;;;;;;;;;5048263;28;20765;-66
2021/12/08 10:59:07;;;;;;;12.15;3.00;;;;;;;;;;5044749;28;20049;-65
2021/12/08 11:01:35;;;;;;;9.75;2.42;;;;;;;;;;5046587;28;21893;-65
2021/12/08 11:04:03;;;;;;;8.18;2.40;;;;;;;;;;5039532;28;22386;-65
2021/12/08 11:06:32;;;;;;;7.43;3.08;;;;;;;;;;5048048;28;20047;-64
2021/12/08 11:08:58;;;;;;;10.20;2.53;;;;;;;;;;5053210;28;20056;-65
2021/12/08 11:11:28;;;;;;;11.18;2.55;;;;;;;;;;5050538;28;20430;-66
2021/12/08 11:13:59;;;;;;;11.05;2.42;;;;;;;;;;5051841;28;20049;-66
2021/12/08 11:16:25;;;;;;;9.45;3.15;;;;;;;;;;5052483;28;20041;-67
2021/12/08 11:18:52;;;;;;;13.57;3.15;;;;;;;;;;5050234;28;20052;-66
2021/12/08 11:21:30;;;;;;;8.15;2.22;;;;;;;;;;5051502;28;20052;-67
2021/12/08 11:23:57;;;;;;;7.78;2.55;;;;;;;;;;5049761;28;20057;-67
2021/12/08 11:26:36;;;;;;;13.90;3.20;;;;;;;;;;5049854;28;20466;-66
2021/12/08 11:29:34;;;;;;;8.45;2.55;;;;;;;;;;5051788;28;20044;-66
2021/12/08 11:32:05;;;;;;;6.65;2.35;;;;;;;;;;5027502;28;20056;-68
2021/12/08 11:34:41;;;;;;;10.38;2.85;;;;;;;;;;5050628;28;20040;-67
2021/12/08 11:37:08;;;;;;;9.23;2.30;;;;;;;;;;5034149;28;20048;-66
2021/12/08 11:39:36;;;;;;;8.40;2.70;;;;;;;;;;5051877;28;20036;-67
2021/12/08 11:42:13;;;;;;;11.02;2.92;;;;;;;;;;5049095;28;20060;-67
2021/12/08 11:44:50;;;;;;;7.53;2.22;;;;;;;;;;5051415;28;20040;-67
2021/12/08 11:47:22;;;;;;;11.55;2.75;;;;;;;;;;5033263;28;20044;-68
2021/12/08 11:49:53;;;;;;;7.47;2.70;;;;;;;;;;5042256;28;20048;-71
2021/12/08 11:52:20;;;;;;;8.60;2.97;;;;;;;;;;5051691;28;20044;-66
2021/12/08 11:54:49;;;;;;;10.27;3.40;;;;;;;;;;5051059;28;20484;-68
2021/12/08 11:57:19;;;;;;;9.02;2.97;;;;;;;;;;5053229;28;20036;-66
2021/12/08 11:59:47;;;;;;;13.00;3.35;;;;;;;;;;5059706;28;20060;-70
2021/12/08 12:02:15;;;;;;;8.48;3.10;;;;;;;;;;5030661;28;20511;-68
2021/12/08 12:04:44;;;;;;;9.18;3.10;;;;;;;;;;5051007;28;20392;-67
2021/12/08 12:07:11;;;;;;;11.75;3.17;;;;;;;;;;5052369;28;20047;-68
2021/12/08 12:09:38;;;;;;;7.68;2.97;;;;;;;;;;5048973;28;20037;-67
2021/12/08 12:12:04;;;;;;;6.68;3.13;;;;;;;;;;5052090;28;20124;-68
2021/12/08 12:14:30;;;;;;;7.45;2.95;;;;;;;;;;5047374;28;20479;-68
2021/12/08 12:16:56;;;;;;;8.80;2.90;;;;;;;;;;5045714;28;20138;-67
2021/12/08 12:19:23;;;;;;;12.68;3.58;;;;;;;;;;5044918;28;20029;-67
2021/12/08 12:21:58;;;;;;;7.60;3.10;;;;;;;;;;5052958;28;20044;-67
2021/12/08 12:24:40;;;;;;;9.75;3.22;;;;;;;;;;5052195;28;20053;-67
2021/12/08 12:27:18;;;;;;;7.30;2.47;;;;;;;;;;5048616;28;20067;-67
2021/12/08 12:29:53;;;;;;;16.95;4.03;;;;;;;;;;5045983;28;20400;-68
2021/12/08 12:32:31;;;;;;;9.13;3.13;;;;;;;;;;5050792;28;20029;-68
2021/12/08 12:35:16;;;;;;;10.85;2.60;;;;;;;;;;5040349;28;20045;-68
2021/12/08 12:37:43;;;;;;;7.53;2.70;;;;;;;;;;5047781;28;20132;-68
2021/12/08 12:40:12;;;;;;;12.23;2.80;;;;;;;;;;5048095;28;20044;-68
2021/12/08 12:42:47;;;;;;;11.15;2.65;;;;;;;;;;5046116;28;20483;-67
2021/12/08 12:45:14;;;;;;;9.50;2.70;;;;;;;;;;5050850;28;20045;-67
2021/12/08 12:47:40;;;;;;;8.85;2.65;;;;;;;;;;5043419;28;20029;-67
2021/12/08 12:50:11;;;;;;;11.45;3.63;;;;;;;;;;5052488;28;20471;-68
2021/12/08 12:52:43;;;;;;;7.43;2.95;;;;;;;;;;5045472;28;20064;-67
2021/12/08 12:55:14;;;;;;;7.35;2.70;;;;;;;;;;5050927;28;20731;-68
2021/12/08 12:57:59;;;;;;;9.88;2.25;;;;;;;;;;5049739;28;20035;-67
2021/12/08 13:00:27;;;;;;;8.63;2.40;;;;;;;;;;5044409;28;20033;-67
2021/12/08 13:02:53;;;;;;;8.43;2.20;;;;;;;;;;5047441;28;20056;-68
2021/12/08 13:05:19;;;;;;;4.97;2.00;;;;;;;;;;5052177;28;20072;-68
2021/12/08 13:07:58;;;;;;;4.18;1.85;;;;;;;;;;5036355;28;20046;-68
2021/12/08 13:10:33;;;;;;;10.50;2.55;;;;;;;;;;5050462;28;20442;-68
2021/12/08 13:13:15;;;;;;;7.30;2.17;;;;;;;;;;5049516;28;20175;-68
2021/12/08 13:15:44;;;;;;;6.47;2.10;;;;;;;;;;5050908;28;20037;-67
2021/12/08 13:18:12;;;;;;;10.55;2.88;;;;;;;;;;5047377;28;20041;-67
2021/12/08 13:20:58;;;;;;;6.88;2.67;;;;;;;;;;5016886;28;20105;-67
2021/12/08 13:23:28;;;;;;;10.70;2.45;;;;;;;;;;5047099;28;20064;-69
2021/12/08 13:28:27;;;;;;;7.35;2.55;;;;;;;;;;5046624;28;20176;-68
2021/12/08 13:30:53;;;;;;;8.05;2.20;;;;;;;;;;5045828;28;20045;-68
2021/12/08 13:33:29;;;;;;;5.55;1.95;;;;;;;;;;5047357;28;20033;-69
2021/12/08 13:35:55;;;;;;;7.85;2.42;;;;;;;;;;5050624;28;20045;-68
2021/12/08 13:38:22;;;;;;;8.82;2.33;;;;;;;;;;5046556;28;20116;-68
2021/12/08 13:40:51;;;;;;;8.25;2.63;;;;;;;;;;5014341;28;20124;-69
2021/12/08 13:43:37;;;;;;;10.75;2.75;;;;;;;;;;5041796;28;20052;-68
2021/12/08 13:46:04;;;;;;;10.98;2.75;;;;;;;;;;5045297;28;20037;-68
2021/12/08 13:48:30;;;;;;;8.48;2.80;;;;;;;;;;5049129;28;20033;-68
2021/12/08 13:51:14;;;;;;;8.10;2.30;;;;;;;;;;5051516;28;20033;-69
2021/12/08 13:53:40;;;;;;;9.45;2.08;;;;;;;;;;5048643;28;20040;-69
2021/12/08 13:56:07;;;;;;;7.05;3.13;;;;;;;;;;5049499;28;20041;-69
2021/12/08 13:58:39;;;;;;;8.43;2.55;;;;;;;;;;5043448;28;20041;-69
2021/12/08 14:01:05;;;;;;;10.10;2.40;;;;;;;;;;5022047;28;20052;-69
2021/12/08 14:03:39;;;;;;;14.40;2.90;;;;;;;;;;5043654;28;20036;-69
2021/12/08 14:06:07;;;;;;;7.97;2.38;;;;;;;;;;5042564;28;20037;-69
2021/12/08 14:08:34;;;;;;;4.68;2.08;;;;;;;;;;5026416;28;20049;-69
2021/12/08 14:11:02;;;;;;;5.90;2.17;;;;;;;;;;5045370;28;20476;-68
2021/12/08 14:13:30;;;;;;;10.27;2.60;;;;;;;;;;5049813;28;20033;-68
2021/12/08 14:16:03;;;;;;;10.27;2.30;;;;;;;;;;5050060;28;20044;-69
2021/12/08 14:18:35;;;;;;;5.55;2.22;;;;;;;;;;5047675;28;20044;-69
2021/12/08 14:21:06;;;;;;;7.88;2.40;;;;;;;;;;5050980;28;20076;-69
2021/12/08 14:23:35;;;;;;;7.45;2.10;;;;;;;;;;5050409;28;20400;-69
2021/12/08 14:26:05;;;;;;;8.77;2.33;;;;;;;;;;5050572;28;20515;-69
2021/12/08 14:28:39;;;;;;;6.20;2.38;;;;;;;;;;5050526;28;20052;-69
2021/12/08 14:31:10;;;;;;;9.82;2.35;;;;;;;;;;5049870;28;20175;-69
2021/12/08 14:33:37;;;;;;;9.63;2.17;;;;;;;;;;5032304;28;20430;-69
2021/12/08 14:36:05;;;;;;;6.15;2.13;;;;;;;;;;5049022;28;20033;-69
2021/12/08 14:38:33;;;;;;;6.10;2.00;;;;;;;;;;5049597;28;20121;-68
2021/12/08 14:40:59;;;;;;;8.20;2.42;;;;;;;;;;5051736;28;20092;-69
2021/12/08 14:43:34;;;;;;;6.68;2.25;;;;;;;;;;5037388;28;20375;-68
2021/12/08 14:46:10;;;;;;;8.23;2.13;;;;;;;;;;5053863;28;20052;-68
2021/12/08 14:48:37;;;;;;;6.70;2.25;;;;;;;;;;5036489;28;20049;-68
2021/12/08 14:51:03;;;;;;;9.95;2.05;;;;;;;;;;5052261;28;20167;-68
2021/12/08 14:53:34;;;;;;;6.57;2.10;;;;;;;;;;5044657;28;20711;-68
2021/12/08 14:56:10;;;;;;;6.88;1.75;;;;;;;;;;5054925;28;20126;-68
2021/12/08 14:58:37;;;;;;;7.50;1.80;;;;;;;;;;5054886;28;20033;-68
2021/12/08 15:01:03;;;;;;;7.10;1.88;;;;;;;;;;5054261;28;20043;-68
2021/12/08 15:03:29;;;;;;;8.82;1.83;;;;;;;;;;5054846;28;20037;-69
2021/12/08 15:05:55;;;;;;;10.50;1.98;;;;;;;;;;5054448;28;20044;-69
2021/12/08 15:08:24;;;;;;;6.40;2.08;;;;;;;;;;5036192;28;20052;-69
2021/12/08 15:10:51;;;;;;;7.10;2.30;;;;;;;;;;5054568;28;20111;-69
2021/12/08 15:13:18;;;;;;;7.43;2.58;;;;;;;;;;5054052;28;20365;-70
2021/12/08 15:15:56;;;;;;;5.78;1.90;;;;;;;;;;5053823;28;20151;-69
2021/12/08 15:18:24;;;;;;;7.93;2.40;;;;;;;;;;5054583;28;20360;-69
2021/12/08 15:20:58;;;;;;;8.82;2.47;;;;;;;;;;5054512;28;20040;-68
2021/12/08 15:23:38;;;;;;;7.65;2.40;;;;;;;;;;5035500;28;20492;-68
2021/12/08 15:26:05;;;;;;;8.77;2.50;;;;;;;;;;5054175;28;20060;-68
2021/12/08 15:28:33;;;;;;;5.88;1.80;;;;;;;;;;5054700;28;20037;-68
2021/12/08 15:30:59;;;;;;;6.18;2.30;;;;;;;;;;5035626;28;20041;-68
2021/12/08 15:33:26;;;;;;;8.02;2.58;;;;;;;;;;5054117;28;20394;-68
2021/12/08 15:35:53;;;;;;;6.18;2.83;;;;;;;;;;5054419;28;20047;-68
2021/12/08 15:38:19;;;;;;;10.68;2.75;;;;;;;;;;5053967;28;20127;-68
2021/12/08 15:40:52;;;;;;;9.98;2.90;;;;;;;;;;5054628;28;20431;-68
2021/12/08 15:43:20;;;;;;;9.32;2.88;;;;;;;;;;5054106;28;20615;-68
2021/12/08 15:45:47;;;;;;;6.03;2.22;;;;;;;;;;5053012;28;20037;-68
2021/12/08 15:48:15;;;;;;;8.35;2.55;;;;;;;;;;5054364;28;20045;-68
2021/12/08 15:50:44;;;;;;;8.48;2.53;;;;;;;;;;5054108;28;20072;-69